Time;durP1;ratioP1;P1;durP2;ratioP2;P2;SDS_P1;SDS_P2;PMS_P1;PMS_P2;Temp;Humidity;BMP_temperature;BMP_pressure;BME280_temperature;BME280_humidity;BME280_pressure;Samples;Min_cycle;Max_cycle;Signal;HPM_P1;HPM_P2
2023/01/20 00:00:22;;;;;;;2.45;1.23;;;;;;;;;;5091243;28;20026;-71
2023/01/20 00:02:47;;;;;;;3.15;1.42;;;;;;;;;;5092003;28;20107;-73
2023/01/20 00:05:12;;;;;;;2.58;1.42;;;;;;;;;;5091212;28;20631;-70
2023/01/20 00:07:38;;;;;;;4.28;1.83;;;;;;;;;;5091493;28;20448;-76
2023/01/20 00:10:04;;;;;;;4.30;2.10;;;;;;;;;;5091061;28;20549;-69
2023/01/20 00:12:30;;;;;;;11.98;5.82;;;;;;;;;;5091605;28;20027;-71
2023/01/20 00:14:56;;;;;;;14.75;7.05;;;;;;;;;;5091104;28;20088;-71
2023/01/20 00:17:22;;;;;;;11.15;5.35;;;;;;;;;;5091501;28;20102;-69
2023/01/20 00:19:47;;;;;;;7.93;4.25;;;;;;;;;;5090801;28;20024;-69
2023/01/20 00:22:12;;;;;;;5.70;2.72;;;;;;;;;;5091572;28;20865;-69
2023/01/20 00:24:38;;;;;;;3.30;1.75;;;;;;;;;;5090993;28;20024;-70
2023/01/20 00:27:03;;;;;;;2.22;1.42;;;;;;;;;;5091238;28;20108;-72
2023/01/20 00:29:29;;;;;;;2.50;1.60;;;;;;;;;;5091187;28;20104;-69
2023/01/20 00:31:54;;;;;;;2.47;1.55;;;;;;;;;;5090813;28;20196;-71
2023/01/20 00:34:19;;;;;;;2.80;1.50;;;;;;;;;;5090621;28;20449;-71
2023/01/20 00:36:45;;;;;;;3.25;1.45;;;;;;;;;;5091045;28;20456;-72
2023/01/20 00:39:10;;;;;;;2.30;1.45;;;;;;;;;;5091186;28;20024;-72
2023/01/20 00:41:36;;;;;;;2.72;1.30;;;;;;;;;;5090585;28;20020;-69
2023/01/20 00:44:01;;;;;;;2.45;1.40;;;;;;;;;;5091186;28;20039;-69
2023/01/20 00:46:27;;;;;;;2.20;1.35;;;;;;;;;;5090666;28;20108;-68
2023/01/20 00:48:52;;;;;;;2.17;1.27;;;;;;;;;;5090089;28;20476;-70
2023/01/20 00:51:18;;;;;;;2.58;1.20;;;;;;;;;;5090359;28;20111;-68
2023/01/20 00:53:43;;;;;;;2.22;1.30;;;;;;;;;;5090835;28;20054;-68
2023/01/20 00:56:09;;;;;;;2.95;1.30;;;;;;;;;;5090610;28;20035;-69
2023/01/20 00:58:34;;;;;;;2.58;1.20;;;;;;;;;;5090903;28;20024;-69
2023/01/20 01:01:00;;;;;;;2.05;1.23;;;;;;;;;;5090341;28;20055;-69
2023/01/20 01:03:29;;;;;;;2.50;1.30;;;;;;;;;;5090406;28;20112;-69
2023/01/20 01:06:05;;;;;;;2.67;1.48;;;;;;;;;;5090256;28;20038;-73
2023/01/20 01:08:30;;;;;;;2.08;1.38;;;;;;;;;;5090750;28;20464;-70
2023/01/20 01:10:56;;;;;;;2.08;1.20;;;;;;;;;;5090001;28;20024;-71
2023/01/20 01:13:21;;;;;;;2.10;1.38;;;;;;;;;;5090403;28;20157;-71
2023/01/20 01:15:48;;;;;;;2.15;1.08;;;;;;;;;;5090345;28;20035;-70
2023/01/20 01:18:13;;;;;;;2.15;1.20;;;;;;;;;;5090049;28;20035;-70
2023/01/20 01:20:39;;;;;;;1.77;1.20;;;;;;;;;;5090204;28;20024;-72
2023/01/20 01:23:04;;;;;;;2.70;1.35;;;;;;;;;;5090640;28;20441;-71
2023/01/20 01:25:29;;;;;;;2.25;1.20;;;;;;;;;;5090346;28;20116;-69
2023/01/20 01:27:55;;;;;;;2.90;1.30;;;;;;;;;;5090188;28;20388;-69
2023/01/20 01:30:20;;;;;;;1.95;1.20;;;;;;;;;;5089802;28;20024;-73
2023/01/20 01:32:46;;;;;;;2.15;1.17;;;;;;;;;;5090250;28;20028;-68
2023/01/20 01:35:11;;;;;;;1.90;1.25;;;;;;;;;;5089617;28;20028;-70
2023/01/20 01:37:37;;;;;;;1.70;1.00;;;;;;;;;;5090165;28;20032;-68
2023/01/20 01:40:03;;;;;;;2.10;1.10;;;;;;;;;;5090267;28;20412;-72
2023/01/20 01:42:28;;;;;;;1.60;1.00;;;;;;;;;;5089747;28;20024;-70
2023/01/20 01:45:09;;;;;;;2.10;1.20;;;;;;;;;;5089888;28;20038;-74
2023/01/20 01:47:41;;;;;;;1.85;1.00;;;;;;;;;;5089750;28;20032;-76
2023/01/20 01:50:10;;;;;;;1.42;1.10;;;;;;;;;;5089474;28;20384;-72
2023/01/20 01:52:36;;;;;;;2.25;1.02;;;;;;;;;;5089597;28;20039;-73
2023/01/20 01:55:02;;;;;;;2.08;1.00;;;;;;;;;;5089871;28;20055;-74
2023/01/20 01:57:30;;;;;;;2.38;1.20;;;;;;;;;;5089694;28;20067;-70
2023/01/20 01:59:55;;;;;;;1.92;0.93;;;;;;;;;;5090038;28;20031;-76
2023/01/20 02:02:21;;;;;;;1.75;1.10;;;;;;;;;;5093637;28;20056;-77
2023/01/20 02:04:47;;;;;;;1.77;1.05;;;;;;;;;;5093658;28;20111;-72
2023/01/20 02:07:16;;;;;;;1.98;0.90;;;;;;;;;;5075735;28;20028;-71
2023/01/20 02:09:42;;;;;;;2.00;1.10;;;;;;;;;;5093677;28;20468;-79
2023/01/20 02:12:11;;;;;;;1.92;1.10;;;;;;;;;;5093416;28;20016;-74
2023/01/20 02:14:42;;;;;;;1.73;1.05;;;;;;;;;;5093818;28;20468;-72
2023/01/20 02:17:32;;;;;;;2.00;0.93;;;;;;;;;;5093567;28;20096;-76
2023/01/20 02:20:19;;;;;;;2.13;1.00;;;;;;;;;;5083553;28;20384;-74
2023/01/20 02:23:05;;;;;;;1.23;0.90;;;;;;;;;;5093647;28;20039;-71
2023/01/20 02:25:58;;;;;;;1.52;0.88;;;;;;;;;;5093553;28;20066;-70
2023/01/20 02:28:39;;;;;;;2.03;1.00;;;;;;;;;;5093391;28;20553;-76
2023/01/20 02:31:04;;;;;;;;;;;;;;;;;;5093491;28;20028;-71
2023/01/20 02:33:37;;;;;;;1.60;1.13;;;;;;;;;;5092861;28;19935;-73
2023/01/20 02:36:10;;;;;;;1.60;0.90;;;;;;;;;;5093307;28;20020;-74
2023/01/20 02:38:41;;;;;;;1.27;0.90;;;;;;;;;;5093267;28;20042;-75
2023/01/20 02:41:16;;;;;;;2.08;0.90;;;;;;;;;;5092995;28;20433;-74
2023/01/20 02:43:51;;;;;;;1.50;1.00;;;;;;;;;;5093049;28;20032;-76
2023/01/20 02:46:35;;;;;;;1.80;0.90;;;;;;;;;;5093250;28;20028;-74
2023/01/20 02:49:07;;;;;;;2.30;1.10;;;;;;;;;;5092807;28;20522;-72
2023/01/20 02:51:44;;;;;;;2.30;0.95;;;;;;;;;;5092630;28;20055;-76
2023/01/20 02:54:13;;;;;;;1.92;1.00;;;;;;;;;;5093074;28;20035;-73
2023/01/20 02:56:39;;;;;;;2.05;1.10;;;;;;;;;;5092921;28;20020;-71
2023/01/20 02:59:11;;;;;;;1.40;0.90;;;;;;;;;;5093101;28;20028;-69
2023/01/20 03:01:51;;;;;;;1.55;0.95;;;;;;;;;;5092533;28;20075;-70
2023/01/20 03:04:23;;;;;;;1.95;1.00;;;;;;;;;;5092552;28;20112;-70
2023/01/20 03:06:53;;;;;;;1.63;1.02;;;;;;;;;;5092619;28;20032;-69
2023/01/20 03:09:22;;;;;;;1.80;0.95;;;;;;;;;;5092821;28;20035;-71
2023/01/20 03:11:53;;;;;;;2.13;0.90;;;;;;;;;;5091997;28;20392;-73
2023/01/20 03:14:19;;;;;;;2.33;1.10;;;;;;;;;;5092604;28;20433;-72
2023/01/20 03:16:47;;;;;;;2.35;1.00;;;;;;;;;;5092366;28;20492;-70
2023/01/20 03:19:14;;;;;;;2.17;1.10;;;;;;;;;;5092531;28;20034;-70
2023/01/20 03:21:39;;;;;;;1.80;1.10;;;;;;;;;;5092138;28;20479;-71
2023/01/20 03:24:06;;;;;;;3.88;1.15;;;;;;;;;;5092404;28;20069;-71
2023/01/20 03:26:32;;;;;;;1.83;1.10;;;;;;;;;;5092408;28;20016;-71
2023/01/20 03:29:01;;;;;;;1.92;1.10;;;;;;;;;;5092353;28;20113;-73
2023/01/20 03:31:31;;;;;;;2.38;1.10;;;;;;;;;;5091762;28;20051;-70
2023/01/20 03:33:59;;;;;;;2.47;1.08;;;;;;;;;;5092365;28;20380;-69
2023/01/20 03:36:28;;;;;;;3.05;1.20;;;;;;;;;;5092341;28;20646;-69
2023/01/20 03:38:55;;;;;;;1.83;1.00;;;;;;;;;;5092124;28;20051;-71
2023/01/20 03:41:26;;;;;;;4.45;1.40;;;;;;;;;;5092225;28;20120;-70
2023/01/20 03:44:05;;;;;;;3.35;1.40;;;;;;;;;;5091769;28;20024;-72
2023/01/20 03:46:58;;;;;;;4.20;1.40;;;;;;;;;;5092098;28;20544;-69
2023/01/20 03:49:54;;;;;;;2.08;1.10;;;;;;;;;;5091559;28;20059;-71
2023/01/20 03:52:29;;;;;;;2.83;1.20;;;;;;;;;;5091603;28;20510;-71
2023/01/20 03:55:01;;;;;;;5.07;1.40;;;;;;;;;;5092015;28;20039;-71
2023/01/20 03:57:35;;;;;;;3.00;1.38;;;;;;;;;;5091762;28;20122;-70
2023/01/20 04:00:04;;;;;;;2.35;1.30;;;;;;;;;;5091853;28;20076;-71
2023/01/20 04:02:31;;;;;;;2.83;1.38;;;;;;;;;;5091411;28;20040;-71
2023/01/20 04:04:58;;;;;;;3.70;1.42;;;;;;;;;;5091308;28;20484;-69
2023/01/20 04:07:25;;;;;;;3.22;1.25;;;;;;;;;;5091336;28;20028;-67
2023/01/20 04:09:54;;;;;;;2.60;1.23;;;;;;;;;;5091460;28;20098;-70
2023/01/20 04:12:20;;;;;;;3.33;1.27;;;;;;;;;;5091316;28;20024;-70
2023/01/20 04:14:45;;;;;;;3.05;1.40;;;;;;;;;;5091474;28;20024;-69
2023/01/20 04:17:11;;;;;;;3.47;1.50;;;;;;;;;;5091317;28;20107;-69
2023/01/20 04:19:37;;;;;;;3.25;1.75;;;;;;;;;;5090933;28;20032;-69
2023/01/20 04:22:43;;;;;;;3.15;1.30;;;;;;;;;;5091512;28;20050;-74
2023/01/20 04:25:28;;;;;;;2.55;1.40;;;;;;;;;;5008772;28;20093;-75
2023/01/20 04:27:53;;;;;;;3.97;1.40;;;;;;;;;;5087358;28;20036;-72
2023/01/20 04:30:19;;;;;;;2.97;1.30;;;;;;;;;;5091057;28;20081;-70
2023/01/20 04:32:44;;;;;;;1.42;1.00;;;;;;;;;;5091170;28;20402;-73
2023/01/20 04:35:15;;;;;;;3.17;1.40;;;;;;;;;;5090828;28;20491;-71
2023/01/20 04:37:40;;;;;;;;;;;;;;;;;;5091545;28;20028;-72
2023/01/20 04:40:07;;;;;;;3.05;1.25;;;;;;;;;;5090969;28;19977;-71
2023/01/20 04:42:32;;;;;;;3.30;1.40;;;;;;;;;;5090854;28;20107;-77
2023/01/20 04:44:57;;;;;;;2.75;1.23;;;;;;;;;;5090916;28;20135;-71
2023/01/20 04:47:23;;;;;;;2.47;1.40;;;;;;;;;;5090988;28;21114;-72
2023/01/20 04:49:48;;;;;;;2.47;1.20;;;;;;;;;;5090230;28;20635;-70
2023/01/20 04:52:14;;;;;;;3.60;1.40;;;;;;;;;;5090526;28;20529;-72
2023/01/20 04:54:40;;;;;;;2.80;1.50;;;;;;;;;;5090632;28;20537;-73
2023/01/20 04:57:05;;;;;;;3.78;1.50;;;;;;;;;;5090717;28;20040;-75
2023/01/20 04:59:31;;;;;;;2.67;1.13;;;;;;;;;;5090612;28;20024;-72
2023/01/20 05:01:56;;;;;;;4.55;1.50;;;;;;;;;;5090432;28;20076;-72
2023/01/20 05:04:21;;;;;;;2.35;1.25;;;;;;;;;;5090223;28;20024;-72
2023/01/20 05:06:47;;;;;;;4.00;1.35;;;;;;;;;;5090382;28;20024;-69
2023/01/20 05:09:14;;;;;;;3.00;1.25;;;;;;;;;;5090179;28;20105;-68
2023/01/20 05:11:40;;;;;;;2.75;1.30;;;;;;;;;;5090364;28;20105;-70
2023/01/20 05:14:05;;;;;;;2.65;1.20;;;;;;;;;;5090295;28;20060;-71
2023/01/20 05:16:32;;;;;;;2.28;1.20;;;;;;;;;;5090393;28;20035;-71
2023/01/20 05:18:58;;;;;;;4.57;1.50;;;;;;;;;;5090008;28;20357;-73
2023/01/20 05:21:23;;;;;;;3.70;1.27;;;;;;;;;;5090086;28;20043;-75
2023/01/20 05:23:49;;;;;;;5.82;1.30;;;;;;;;;;5090071;28;20025;-71
2023/01/20 05:26:14;;;;;;;3.65;1.30;;;;;;;;;;5090233;28;20059;-71
2023/01/20 05:28:41;;;;;;;4.50;0.98;;;;;;;;;;5089953;28;20129;-69
2023/01/20 05:31:07;;;;;;;3.40;1.10;;;;;;;;;;5089659;28;20032;-73
2023/01/20 05:33:32;;;;;;;2.63;1.25;;;;;;;;;;5089483;28;20030;-70
2023/01/20 05:35:58;;;;;;;5.40;1.40;;;;;;;;;;5089259;28;20146;-70
2023/01/20 05:38:23;;;;;;;2.88;1.20;;;;;;;;;;5089727;28;20039;-69
2023/01/20 05:40:49;;;;;;;3.83;1.30;;;;;;;;;;5090003;28;20067;-71
2023/01/20 05:43:14;;;;;;;3.28;1.35;;;;;;;;;;5089765;28;20487;-69
2023/01/20 05:45:41;;;;;;;5.22;1.30;;;;;;;;;;5089891;28;20028;-70
2023/01/20 05:48:07;;;;;;;2.55;1.13;;;;;;;;;;5089878;28;20039;-73
2023/01/20 05:50:32;;;;;;;1.73;1.10;;;;;;;;;;5089133;28;20050;-69
2023/01/20 05:52:59;;;;;;;6.32;1.33;;;;;;;;;;5089900;28;20020;-69
2023/01/20 05:55:24;;;;;;;1.75;1.10;;;;;;;;;;5089847;28;20078;-69
2023/01/20 05:57:50;;;;;;;4.30;1.38;;;;;;;;;;5089930;28;20060;-70
2023/01/20 06:00:17;;;;;;;2.30;1.10;;;;;;;;;;5089539;28;20035;-69
2023/01/20 06:02:43;;;;;;;2.88;1.13;;;;;;;;;;5089798;28;20527;-69
2023/01/20 06:05:08;;;;;;;7.85;1.35;;;;;;;;;;5089253;28;20059;-70
2023/01/20 06:07:34;;;;;;;4.57;1.20;;;;;;;;;;5089728;28;20024;-74
2023/01/20 06:10:01;;;;;;;3.92;1.30;;;;;;;;;;5089436;28;20024;-71
2023/01/20 06:12:26;;;;;;;5.53;1.60;;;;;;;;;;5089413;28;20020;-71
2023/01/20 06:14:51;;;;;;;3.92;1.20;;;;;;;;;;5089670;28;20081;-72
2023/01/20 06:17:17;;;;;;;5.10;1.38;;;;;;;;;;5089807;28;20039;-70
2023/01/20 06:19:42;;;;;;;3.10;1.10;;;;;;;;;;5089292;28;20028;-72
2023/01/20 06:22:13;;;;;;;4.28;1.80;;;;;;;;;;5089368;28;20035;-70
2023/01/20 06:24:39;;;;;;;6.13;1.50;;;;;;;;;;5089515;28;20472;-70
2023/01/20 06:27:04;;;;;;;5.88;1.50;;;;;;;;;;5089475;28;20039;-71
2023/01/20 06:29:30;;;;;;;6.95;1.48;;;;;;;;;;5089236;28;20028;-69
2023/01/20 06:31:55;;;;;;;4.30;1.30;;;;;;;;;;5089305;28;20056;-68
2023/01/20 06:34:20;;;;;;;3.45;1.45;;;;;;;;;;5088814;28;20032;-68
2023/01/20 06:36:46;;;;;;;4.32;1.52;;;;;;;;;;5089538;28;20472;-69
2023/01/20 06:39:11;;;;;;;2.75;1.30;;;;;;;;;;5089523;28;20088;-68
2023/01/20 06:41:36;;;;;;;5.28;1.52;;;;;;;;;;5089428;28;20111;-69
2023/01/20 06:44:02;;;;;;;5.15;1.70;;;;;;;;;;5071173;28;20262;-67
2023/01/20 06:46:27;;;;;;;5.30;1.58;;;;;;;;;;5090440;28;20031;-70
2023/01/20 06:48:59;;;;;;;4.68;1.67;;;;;;;;;;5092860;28;20030;-69
2023/01/20 06:51:25;;;;;;;6.68;1.65;;;;;;;;;;5093661;28;20032;-74
2023/01/20 06:53:51;;;;;;;2.90;1.60;;;;;;;;;;5094191;28;20563;-72
2023/01/20 06:56:17;;;;;;;4.85;1.70;;;;;;;;;;5093152;28;20399;-68
2023/01/20 06:58:43;;;;;;;5.32;1.60;;;;;;;;;;5093239;28;20047;-68
2023/01/20 07:01:13;;;;;;;6.60;1.98;;;;;;;;;;5092485;28;20131;-69
2023/01/20 07:03:41;;;;;;;6.03;1.60;;;;;;;;;;5092484;28;20039;-77
2023/01/20 07:06:32;;;;;;;6.28;2.00;;;;;;;;;;5092329;28;20089;-73
2023/01/20 07:08:59;;;;;;;4.28;1.92;;;;;;;;;;5092583;28;20036;-73
2023/01/20 07:11:25;;;;;;;3.95;1.58;;;;;;;;;;5092282;28;20430;-77
2023/01/20 07:13:51;;;;;;;4.15;1.65;;;;;;;;;;5092857;28;20447;-74
2023/01/20 07:16:16;;;;;;;3.70;1.67;;;;;;;;;;5092744;28;20480;-71
2023/01/20 07:18:46;;;;;;;4.50;2.00;;;;;;;;;;5092340;28;20036;-73
2023/01/20 07:21:11;;;;;;;9.63;2.10;;;;;;;;;;5092129;28;20073;-75
2023/01/20 07:23:37;;;;;;;7.93;2.03;;;;;;;;;;5092670;28;20016;-73
2023/01/20 07:26:05;;;;;;;8.10;1.98;;;;;;;;;;5092095;28;20035;-74
2023/01/20 07:28:32;;;;;;;8.70;2.00;;;;;;;;;;5074020;28;20035;-73
2023/01/20 07:31:04;;;;;;;6.55;2.20;;;;;;;;;;5092005;28;20031;-70
2023/01/20 07:33:30;;;;;;;5.90;2.10;;;;;;;;;;5091852;28;20028;-73
2023/01/20 07:35:56;;;;;;;5.43;2.22;;;;;;;;;;5092302;28;20534;-72
2023/01/20 07:38:21;;;;;;;8.95;2.40;;;;;;;;;;5092252;28;20028;-72
2023/01/20 07:40:47;;;;;;;4.63;2.08;;;;;;;;;;5091926;28;20028;-71
2023/01/20 07:43:12;;;;;;;6.07;2.10;;;;;;;;;;5092123;28;20032;-72
2023/01/20 07:45:38;;;;;;;5.95;2.08;;;;;;;;;;5073752;28;20036;-78
2023/01/20 07:48:04;;;;;;;4.35;2.10;;;;;;;;;;5091840;28;20024;-78
2023/01/20 07:50:29;;;;;;;7.10;2.00;;;;;;;;;;5091412;28;20503;-78
2023/01/20 07:52:55;;;;;;;10.52;2.42;;;;;;;;;;5091852;28;20059;-78
2023/01/20 07:55:20;;;;;;;4.95;2.35;;;;;;;;;;5091827;28;20479;-72
2023/01/20 07:57:46;;;;;;;5.82;2.30;;;;;;;;;;5072635;28;20032;-77
2023/01/20 08:00:12;;;;;;;5.15;2.20;;;;;;;;;;5091724;28;20032;-75
2023/01/20 08:02:38;;;;;;;6.55;2.25;;;;;;;;;;5091416;28;20040;-75
2023/01/20 08:05:04;;;;;;;8.23;2.60;;;;;;;;;;5072658;28;20042;-73
2023/01/20 08:07:30;;;;;;;5.80;2.30;;;;;;;;;;5091412;28;20028;-73
2023/01/20 08:09:56;;;;;;;5.40;2.25;;;;;;;;;;5091586;28;20024;-77
2023/01/20 08:12:22;;;;;;;6.05;2.17;;;;;;;;;;5091259;28;20123;-75
2023/01/20 08:14:48;;;;;;;5.15;2.40;;;;;;;;;;5091620;28;20024;-75
2023/01/20 08:17:13;;;;;;;6.60;2.78;;;;;;;;;;5091309;28;20016;-74
2023/01/20 08:19:38;;;;;;;4.43;2.17;;;;;;;;;;5091124;28;20111;-75
2023/01/20 08:22:04;;;;;;;5.90;2.35;;;;;;;;;;5090880;28;20509;-77
2023/01/20 08:24:29;;;;;;;8.65;3.00;;;;;;;;;;5091287;28;20027;-73
2023/01/20 08:26:55;;;;;;;8.75;2.92;;;;;;;;;;5091074;28;20391;-72
2023/01/20 08:29:20;;;;;;;9.65;2.47;;;;;;;;;;5072976;28;20046;-72
2023/01/20 08:31:46;;;;;;;5.82;2.70;;;;;;;;;;5090661;28;20024;-75
2023/01/20 08:34:11;;;;;;;6.18;2.65;;;;;;;;;;5090873;28;20028;-76
2023/01/20 08:36:39;;;;;;;8.85;2.38;;;;;;;;;;5091003;28;20023;-75
2023/01/20 08:39:06;;;;;;;9.45;2.45;;;;;;;;;;5091064;28;20024;-71
2023/01/20 08:41:34;;;;;;;7.30;2.28;;;;;;;;;;5090620;28;20081;-74
2023/01/20 08:44:00;;;;;;;7.50;2.92;;;;;;;;;;5090721;28;20020;-76
2023/01/20 08:46:27;;;;;;;7.95;2.65;;;;;;;;;;5090397;28;20036;-73
2023/01/20 08:48:53;;;;;;;7.88;2.97;;;;;;;;;;5090455;28;20111;-76
2023/01/20 08:51:28;;;;;;;6.97;2.90;;;;;;;;;;5090618;28;20089;-75
2023/01/20 08:53:57;;;;;;;9.77;3.08;;;;;;;;;;5090862;28;20048;-74
2023/01/20 08:56:22;;;;;;;5.68;2.28;;;;;;;;;;5090451;28;20035;-73
2023/01/20 08:58:48;;;;;;;7.20;2.42;;;;;;;;;;5090833;28;20111;-75
2023/01/20 09:01:20;;;;;;;7.40;2.45;;;;;;;;;;5090399;28;20075;-76
2023/01/20 09:03:46;;;;;;;7.30;2.33;;;;;;;;;;5090049;28;20063;-76
2023/01/20 09:06:12;;;;;;;8.90;2.13;;;;;;;;;;5090215;28;20039;-75
2023/01/20 09:08:37;;;;;;;5.78;2.60;;;;;;;;;;5090395;28;20034;-72
2023/01/20 09:11:05;;;;;;;4.90;2.05;;;;;;;;;;5089919;28;20089;-70
2023/01/20 09:13:31;;;;;;;4.70;2.30;;;;;;;;;;5090231;28;20119;-72
2023/01/20 09:15:57;;;;;;;7.25;2.20;;;;;;;;;;5090670;28;20107;-76
2023/01/20 09:18:22;;;;;;;8.32;2.60;;;;;;;;;;5089935;28;20020;-72
2023/01/20 09:20:47;;;;;;;9.23;2.63;;;;;;;;;;5090112;28;20523;-72
2023/01/20 09:23:13;;;;;;;8.40;2.20;;;;;;;;;;5090248;28;20021;-71
2023/01/20 09:25:38;;;;;;;8.50;2.55;;;;;;;;;;5090157;28;20567;-74
2023/01/20 09:28:04;;;;;;;6.90;2.90;;;;;;;;;;5089981;28;20028;-72
2023/01/20 09:30:29;;;;;;;6.68;2.53;;;;;;;;;;5090566;28;20027;-70
2023/01/20 09:32:56;;;;;;;8.07;2.20;;;;;;;;;;5089920;28;20028;-69
2023/01/20 09:35:22;;;;;;;8.73;2.30;;;;;;;;;;5090909;28;20024;-71
2023/01/20 09:43:53;;;;;;;8.68;2.38;;;;;;;;;;5090227;28;20043;-69
2023/01/20 09:46:36;;;;;;;9.35;2.30;;;;;;;;;;5089715;28;20041;-69
2023/01/20 09:55:10;;;;;;;8.52;2.55;;;;;;;;;;5090364;28;20058;-71
2023/01/20 09:57:41;;;;;;;6.07;2.30;;;;;;;;;;5089633;28;20024;-73
2023/01/20 10:00:16;;;;;;;6.72;2.30;;;;;;;;;;5090000;28;20024;-71
2023/01/20 10:02:47;;;;;;;6.97;2.10;;;;;;;;;;5089101;28;20066;-70
2023/01/20 10:05:20;;;;;;;8.50;2.30;;;;;;;;;;5089310;28;20095;-73
2023/01/20 10:07:57;;;;;;;4.72;2.13;;;;;;;;;;5089411;28;20056;-70
2023/01/20 10:10:59;;;;;;;8.10;2.35;;;;;;;;;;5089493;28;20063;-71
2023/01/20 10:13:46;;;;;;;8.13;2.17;;;;;;;;;;5075180;28;20414;-72
2023/01/20 10:16:20;;;;;;;11.30;3.30;;;;;;;;;;5071625;28;20090;-70
2023/01/20 10:18:52;;;;;;;9.35;2.25;;;;;;;;;;5089302;28;20035;-72
2023/01/20 10:21:33;;;;;;;8.73;2.40;;;;;;;;;;5090493;28;20043;-72
2023/01/20 10:24:09;;;;;;;4.05;2.00;;;;;;;;;;5093332;28;20028;-69
2023/01/20 10:26:50;;;;;;;5.65;1.85;;;;;;;;;;5093428;28;20051;-70
2023/01/20 10:29:26;;;;;;;5.05;2.17;;;;;;;;;;5093434;28;20055;-71
2023/01/20 10:32:00;;;;;;;6.35;2.55;;;;;;;;;;5093187;28;20391;-71
2023/01/20 10:34:33;;;;;;;5.53;2.30;;;;;;;;;;5092726;28;20054;-71
2023/01/20 10:37:10;;;;;;;8.55;2.10;;;;;;;;;;5093263;28;20024;-72
2023/01/20 10:39:45;;;;;;;8.02;2.10;;;;;;;;;;5093160;28;20035;-70
2023/01/20 10:42:13;;;;;;;4.45;1.80;;;;;;;;;;5092730;28;20511;-75
2023/01/20 10:44:39;;;;;;;5.32;1.85;;;;;;;;;;5092950;28;20028;-72
2023/01/20 10:47:24;;;;;;;4.93;1.98;;;;;;;;;;5092680;28;20034;-72
2023/01/20 10:50:09;;;;;;;7.10;2.25;;;;;;;;;;5092865;28;20024;-71
2023/01/20 10:52:49;;;;;;;8.02;1.98;;;;;;;;;;5092842;28;20028;-74
2023/01/20 10:55:14;;;;;;;5.45;2.00;;;;;;;;;;5093590;28;20024;-71
2023/01/20 10:57:40;;;;;;;6.55;2.13;;;;;;;;;;5092961;28;20030;-71
2023/01/20 11:00:19;;;;;;;7.47;2.00;;;;;;;;;;5092991;28;20031;-72
2023/01/20 11:02:47;;;;;;;4.47;1.98;;;;;;;;;;5092368;28;20051;-73
2023/01/20 11:05:18;;;;;;;4.13;1.90;;;;;;;;;;5092231;28;20031;-75
2023/01/20 11:07:44;;;;;;;;;;;;;;;;;;5093084;28;20105;-70
2023/01/20 11:10:19;;;;;;;6.57;1.90;;;;;;;;;;5092903;28;19912;-69
2023/01/20 11:12:50;;;;;;;5.88;1.70;;;;;;;;;;5092266;28;20052;-69
2023/01/20 11:15:22;;;;;;;6.20;2.25;;;;;;;;;;5092780;28;20024;-70
2023/01/20 11:18:13;;;;;;;6.20;1.80;;;;;;;;;;5092264;28;20400;-69
2023/01/20 11:20:46;;;;;;;3.78;1.73;;;;;;;;;;5092143;28;20103;-69
2023/01/20 11:23:22;;;;;;;5.25;2.05;;;;;;;;;;5091828;28;20073;-70
2023/01/20 11:26:34;;;;;;;11.02;2.40;;;;;;;;;;5074248;28;20377;-69
2023/01/20 11:29:09;;;;;;;5.30;1.92;;;;;;;;;;5071815;28;20385;-69
2023/01/20 11:31:45;;;;;;;7.82;1.90;;;;;;;;;;5092472;28;20031;-69
2023/01/20 11:34:24;;;;;;;6.03;2.05;;;;;;;;;;5091461;28;20020;-70
2023/01/20 11:37:17;;;;;;;7.68;2.10;;;;;;;;;;5092403;28;20038;-71
2023/01/20 11:39:48;;;;;;;6.07;1.67;;;;;;;;;;5081851;28;20411;-69
2023/01/20 11:42:20;;;;;;;5.15;1.60;;;;;;;;;;5091888;28;20024;-69
2023/01/20 11:44:47;;;;;;;4.30;1.65;;;;;;;;;;5091693;28;20050;-69
2023/01/20 11:47:25;;;;;;;6.63;1.80;;;;;;;;;;5091950;28;20024;-69
2023/01/20 11:50:05;;;;;;;3.38;1.80;;;;;;;;;;5091816;28;20024;-68
2023/01/20 11:52:33;;;;;;;5.35;1.80;;;;;;;;;;5091847;28;20124;-69
2023/01/20 11:55:08;;;;;;;5.32;1.95;;;;;;;;;;5091803;28;20534;-69
2023/01/20 11:57:35;;;;;;;5.93;2.10;;;;;;;;;;5091511;28;20039;-70
2023/01/20 12:00:01;;;;;;;4.47;1.90;;;;;;;;;;5091356;28;20019;-69
2023/01/20 12:02:27;;;;;;;5.45;1.90;;;;;;;;;;5091318;28;20098;-71
2023/01/20 12:05:25;;;;;;;6.55;1.80;;;;;;;;;;5091183;28;20420;-70
2023/01/20 12:07:51;;;;;;;4.07;2.10;;;;;;;;;;5091651;28;20082;-69
2023/01/20 12:10:27;;;;;;;5.00;2.10;;;;;;;;;;5091605;28;20020;-68
2023/01/20 12:12:58;;;;;;;5.65;2.00;;;;;;;;;;5091444;28;20024;-73
2023/01/20 12:15:39;;;;;;;5.55;1.77;;;;;;;;;;5073263;28;20111;-70
2023/01/20 12:18:14;;;;;;;6.50;1.73;;;;;;;;;;5091155;28;20024;-72
2023/01/20 12:20:47;;;;;;;6.32;2.00;;;;;;;;;;5091012;28;20024;-69
2023/01/20 12:23:20;;;;;;;3.53;1.98;;;;;;;;;;5090807;28;20438;-68
2023/01/20 12:25:57;;;;;;;5.68;1.80;;;;;;;;;;5091240;28;20039;-72
2023/01/20 12:28:56;;;;;;;3.53;1.80;;;;;;;;;;5090925;28;20098;-68
2023/01/20 12:31:22;;;;;;;4.70;2.05;;;;;;;;;;5057123;28;20044;-69
2023/01/20 12:33:50;;;;;;;5.30;2.22;;;;;;;;;;5090403;28;20207;-69
2023/01/20 12:36:18;;;;;;;6.40;2.03;;;;;;;;;;5091253;28;20032;-71
2023/01/20 12:38:59;;;;;;;3.42;1.95;;;;;;;;;;5090637;28;20585;-76
2023/01/20 12:41:46;;;;;;;3.45;1.83;;;;;;;;;;5090898;28;20388;-77
2023/01/20 12:44:22;;;;;;;5.03;2.50;;;;;;;;;;5090060;28;20035;-76
2023/01/20 12:47:12;;;;;;;5.45;2.00;;;;;;;;;;5072742;28;20031;-77
2023/01/20 12:50:16;;;;;;;5.32;2.17;;;;;;;;;;5090390;28;20030;-76
2023/01/20 12:53:19;;;;;;;5.75;2.03;;;;;;;;;;5078019;28;20040;-76
2023/01/20 12:56:10;;;;;;;8.85;2.08;;;;;;;;;;5090669;28;20484;-75
2023/01/20 12:58:50;;;;;;;8.57;2.00;;;;;;;;;;5058702;28;20040;-79
2023/01/20 13:01:42;;;;;;;6.82;2.00;;;;;;;;;;5090365;28;20189;-78
2023/01/20 13:04:34;;;;;;;5.75;1.80;;;;;;;;;;5071625;28;20396;-77
2023/01/20 13:07:11;;;;;;;4.75;1.98;;;;;;;;;;5059070;28;20039;-70
2023/01/20 13:10:20;;;;;;;5.25;1.73;;;;;;;;;;5072150;28;20538;-73
2023/01/20 13:12:46;;;;;;;6.70;1.70;;;;;;;;;;5056203;28;20051;-77
2023/01/20 13:15:20;;;;;;;4.18;1.80;;;;;;;;;;5090104;28;20024;-78
2023/01/20 13:18:16;;;;;;;5.15;1.83;;;;;;;;;;5090353;28;20028;-75
2023/01/20 13:20:46;;;;;;;6.43;1.83;;;;;;;;;;5089525;28;20024;-77
2023/01/20 13:23:20;;;;;;;4.97;1.85;;;;;;;;;;5089953;28;20649;-77
2023/01/20 13:25:46;;;;;;;3.53;1.80;;;;;;;;;;5090153;28;20042;-76
2023/01/20 13:28:24;;;;;;;5.03;1.90;;;;;;;;;;5090133;28;20023;-80
2023/01/20 13:30:52;;;;;;;8.32;2.25;;;;;;;;;;5090188;28;20118;-78
2023/01/20 13:33:39;;;;;;;5.45;2.13;;;;;;;;;;5089432;28;20565;-76
2023/01/20 13:36:20;;;;;;;4.88;1.60;;;;;;;;;;5089988;28;20568;-76
2023/01/20 13:38:48;;;;;;;4.78;1.75;;;;;;;;;;5089643;28;20031;-79
2023/01/20 13:41:59;;;;;;;5.72;1.95;;;;;;;;;;5089915;28;20030;-75
2023/01/20 13:44:38;;;;;;;6.30;2.10;;;;;;;;;;5086229;28;20039;-70
2023/01/20 13:47:09;;;;;;;5.68;2.05;;;;;;;;;;5089953;28;20016;-78
2023/01/20 13:49:40;;;;;;;4.47;1.88;;;;;;;;;;5089503;28;20095;-78
2023/01/20 13:52:06;;;;;;;5.60;1.75;;;;;;;;;;5090346;28;20024;-75
2023/01/20 13:54:34;;;;;;;5.18;1.73;;;;;;;;;;5089793;28;20016;-79
2023/01/20 13:57:32;;;;;;;5.28;1.80;;;;;;;;;;5073817;28;20055;-75
2023/01/20 13:59:58;;;;;;;4.32;1.90;;;;;;;;;;5093884;28;20032;-77
2023/01/20 14:02:25;;;;;;;5.38;2.10;;;;;;;;;;5093631;28;20067;-76
2023/01/20 14:04:50;;;;;;;5.05;1.77;;;;;;;;;;5093136;28;20039;-77
2023/01/20 14:07:24;;;;;;;7.63;2.15;;;;;;;;;;5093911;28;20024;-73
2023/01/20 14:09:55;;;;;;;5.53;1.73;;;;;;;;;;5093686;28;20144;-75
2023/01/20 14:12:21;;;;;;;5.00;1.67;;;;;;;;;;5093761;28;20503;-76
2023/01/20 14:14:48;;;;;;;4.38;1.70;;;;;;;;;;5093284;28;20055;-75
2023/01/20 14:17:17;;;;;;;6.97;1.90;;;;;;;;;;5094051;28;20111;-75
2023/01/20 14:19:48;;;;;;;5.20;1.90;;;;;;;;;;5093033;28;20518;-75
2023/01/20 14:22:18;;;;;;;;;;;;;;;;;;5094149;28;20484;-71
2023/01/20 14:24:48;;;;;;;4.13;1.60;;;;;;;;;;5092994;28;19912;-72
2023/01/20 14:27:30;;;;;;;4.57;1.80;;;;;;;;;;5093494;28;20510;-73
2023/01/20 14:29:59;;;;;;;3.97;1.60;;;;;;;;;;5093546;28;20097;-73
2023/01/20 14:32:35;;;;;;;5.15;1.67;;;;;;;;;;5093567;28;20035;-73
2023/01/20 14:35:10;;;;;;;6.70;2.08;;;;;;;;;;5092483;28;20503;-75
2023/01/20 14:37:37;;;;;;;4.75;1.52;;;;;;;;;;5093404;28;20122;-75
2023/01/20 14:40:09;;;;;;;5.20;1.48;;;;;;;;;;5092861;28;20456;-73
2023/01/20 14:42:35;;;;;;;4.75;1.65;;;;;;;;;;5093429;28;20024;-75
2023/01/20 14:45:00;;;;;;;8.73;1.88;;;;;;;;;;5092622;28;20421;-72
2023/01/20 14:47:27;;;;;;;6.68;2.20;;;;;;;;;;5093033;28;20032;-71
2023/01/20 14:49:53;;;;;;;7.43;2.20;;;;;;;;;;5092730;28;20020;-74
2023/01/20 14:52:23;;;;;;;6.40;1.75;;;;;;;;;;5092996;28;20107;-72
2023/01/20 14:54:49;;;;;;;3.75;1.63;;;;;;;;;;5092686;28;20028;-68
2023/01/20 14:57:26;;;;;;;3.22;1.40;;;;;;;;;;5074884;28;20390;-73
2023/01/20 15:00:14;;;;;;;5.65;1.60;;;;;;;;;;5092703;28;20052;-69
2023/01/20 15:02:45;;;;;;;4.38;1.55;;;;;;;;;;5092627;28;20070;-69
2023/01/20 15:05:20;;;;;;;4.93;1.63;;;;;;;;;;5092101;28;20028;-71
2023/01/20 15:08:03;;;;;;;4.55;1.80;;;;;;;;;;5074067;28;20414;-69
2023/01/20 15:10:28;;;;;;;5.38;1.80;;;;;;;;;;5092558;28;20024;-69
2023/01/20 15:12:54;;;;;;;4.88;1.98;;;;;;;;;;5092881;28;20412;-70
2023/01/20 15:15:26;;;;;;;8.75;2.03;;;;;;;;;;5091898;28;20024;-68